Time;durP1;ratioP1;P1;durP2;ratioP2;P2;SDS_P1;SDS_P2;PMS_P1;PMS_P2;Temp;Humidity;BMP_temperature;BMP_pressure;BME280_temperature;BME280_humidity;BME280_pressure;Samples;Min_cycle;Max_cycle;Signal;HPM_P1;HPM_P2
2022/04/22 00:00:30;;;;;;;11.10;6.63;;;9.10;99.90;;;;;;5074346;28;20017;-84
2022/04/22 00:02:56;;;;;;;9.00;6.38;;;9.10;99.90;;;;;;5076929;28;20025;-87
2022/04/22 00:05:23;;;;;;;13.82;7.20;;;9.00;99.90;;;;;;5077934;28;20012;-86
2022/04/22 00:07:48;;;;;;;9.55;6.70;;;9.00;99.90;;;;;;5077166;28;20044;-85
2022/04/22 00:10:16;;;;;;;15.38;7.97;;;9.00;99.90;;;;;;5073896;28;20029;-87
2022/04/22 00:12:41;;;;;;;12.95;6.88;;;9.00;99.90;;;;;;5084688;28;20121;-85
2022/04/22 00:15:08;;;;;;;12.00;7.43;;;8.90;99.90;;;;;;5085984;28;20025;-86
2022/04/22 00:17:34;;;;;;;11.02;7.00;;;8.80;99.90;;;;;;5089797;28;20051;-85
2022/04/22 00:20:00;;;;;;;11.68;7.13;;;8.80;99.90;;;;;;5078492;28;20080;-84
2022/04/22 00:22:25;;;;;;;12.80;7.25;;;8.70;99.90;;;;;;5078091;28;20028;-86
2022/04/22 00:24:52;;;;;;;12.77;7.82;;;8.70;99.90;;;;;;5077994;28;20013;-86
2022/04/22 00:27:18;;;;;;;11.75;7.43;;;8.70;99.90;;;;;;5077936;28;20043;-85
2022/04/22 00:29:44;;;;;;;11.18;6.95;;;8.70;99.90;;;;;;5077187;28;20056;-84
2022/04/22 00:32:09;;;;;;;13.32;7.85;;;8.60;99.90;;;;;;5077518;28;20056;-84
2022/04/22 00:34:35;;;;;;;11.73;7.85;;;8.60;99.90;;;;;;5074973;28;20033;-86
2022/04/22 00:37:01;;;;;;;14.63;7.85;;;8.60;99.90;;;;;;5089255;28;20025;-85
2022/04/22 00:39:27;;;;;;;10.93;7.40;;;8.50;99.90;;;;;;5077349;28;20088;-85
2022/04/22 00:41:53;;;;;;;12.70;8.13;;;8.50;99.90;;;;;;5075910;28;20081;-85
2022/04/22 00:44:18;;;;;;;14.60;7.82;;;8.40;99.90;;;;;;5073881;28;20005;-86
2022/04/22 00:46:44;;;;;;;14.77;8.30;;;8.40;99.90;;;;;;5076796;28;20028;-86
2022/04/22 00:49:10;;;;;;;19.83;7.70;;;8.40;99.90;;;;;;5093288;28;20265;-84
2022/04/22 00:51:37;;;;;;;14.63;8.15;;;8.40;99.90;;;;;;5076902;28;20055;-82
2022/04/22 00:54:05;;;;;;;11.55;8.23;;;8.40;99.90;;;;;;5076912;28;20013;-82
2022/04/22 00:56:31;;;;;;;15.07;8.77;;;8.30;99.90;;;;;;5076683;28;20021;-83
2022/04/22 00:58:59;;;;;;;16.33;8.43;;;8.30;99.90;;;;;;5076157;28;20025;-84
2022/04/22 01:01:25;;;;;;;13.63;9.07;;;8.30;99.90;;;;;;5076665;28;20037;-83
2022/04/22 01:12:06;;;;;;;14.63;9.30;;;8.30;99.90;;;;;;5070464;28;20039;-83
2022/04/22 01:14:33;;;;;;;21.20;8.98;;;8.30;99.90;;;;;;5080305;28;20056;-86
2022/04/22 01:17:00;;;;;;;17.08;10.07;;;8.30;99.90;;;;;;5063336;28;20055;-85
2022/04/22 01:19:28;;;;;;;14.45;9.05;;;8.40;99.90;;;;;;5065926;28;20017;-83
2022/04/22 01:21:53;;;;;;;17.40;9.60;;;8.30;99.90;;;;;;5066210;28;20083;-84
2022/04/22 01:24:19;;;;;;;14.35;8.80;;;8.40;99.90;;;;;;5061877;28;20025;-86
2022/04/22 01:26:46;;;;;;;19.48;9.40;;;8.40;99.90;;;;;;5063656;28;20033;-87
2022/04/22 01:29:14;;;;;;;15.00;9.35;;;8.40;99.90;;;;;;5071598;28;20519;-83
2022/04/22 01:31:41;;;;;;;20.27;9.63;;;8.40;99.90;;;;;;5067571;28;20028;-84
2022/04/22 01:34:07;;;;;;;16.20;9.38;;;8.30;99.90;;;;;;5081219;28;20021;-84
2022/04/22 01:36:33;;;;;;;21.08;9.60;;;8.30;99.90;;;;;;5083451;28;20492;-83
2022/04/22 01:38:58;;;;;;;15.63;8.63;;;8.30;99.90;;;;;;5086411;28;20021;-85
2022/04/22 01:41:24;;;;;;;14.13;8.95;;;8.30;99.90;;;;;;5073600;28;20040;-83
2022/04/22 01:43:50;;;;;;;20.20;9.40;;;8.40;99.90;;;;;;5067096;28;20028;-81
2022/04/22 01:46:16;;;;;;;15.27;9.95;;;8.40;99.90;;;;;;5088880;28;20039;-84
2022/04/22 01:48:42;;;;;;;14.32;9.20;;;8.40;99.90;;;;;;5077817;28;20080;-82
2022/04/22 01:51:08;;;;;;;14.85;8.85;;;8.40;99.90;;;;;;5076983;28;20044;-81
2022/04/22 01:53:34;;;;;;;14.63;9.32;;;8.40;99.90;;;;;;5094612;28;20033;-80
2022/04/22 01:56:00;;;;;;;14.68;9.23;;;8.40;99.90;;;;;;5079038;28;20055;-84
2022/04/22 01:58:25;;;;;;;17.85;9.77;;;8.40;99.90;;;;;;5089781;28;20032;-83
2022/04/22 02:00:51;;;;;;;19.27;10.15;;;8.40;99.90;;;;;;5079170;28;20144;-82
2022/04/22 02:03:17;;;;;;;12.45;8.98;;;8.40;99.90;;;;;;5078613;28;20021;-83
2022/04/22 02:05:43;;;;;;;13.65;9.05;;;8.40;99.90;;;;;;5078581;28;20036;-83
2022/04/22 02:08:12;;;;;;;18.35;9.60;;;8.50;99.90;;;;;;5079019;28;20058;-81
2022/04/22 02:10:40;;;;;;;18.05;9.13;;;8.50;99.90;;;;;;5079178;28;20036;-81
2022/04/22 02:13:08;;;;;;;14.70;9.48;;;8.50;99.90;;;;;;5089881;28;20064;-87
2022/04/22 02:15:34;;;;;;;18.00;10.07;;;8.50;99.90;;;;;;5062210;28;20039;-85
2022/04/22 02:18:00;;;;;;;18.35;9.70;;;8.50;99.90;;;;;;5061442;28;20043;-86
2022/04/22 02:20:26;;;;;;;15.13;8.90;;;8.50;99.90;;;;;;5060447;28;20041;-84
2022/04/22 02:22:52;;;;;;;16.58;9.80;;;8.50;99.90;;;;;;5062233;28;20017;-83
2022/04/22 02:25:18;;;;;;;16.27;9.40;;;8.50;99.90;;;;;;5081250;28;20025;-86
2022/04/22 02:30:28;;;;;;;16.58;8.88;;;8.50;99.90;;;;;;5073603;28;20039;-84
2022/04/22 02:32:54;;;;;;;17.48;9.80;;;8.50;99.90;;;;;;5084140;28;20013;-83
2022/04/22 02:35:21;;;;;;;16.63;9.63;;;8.50;99.90;;;;;;5063841;28;20029;-85
2022/04/22 02:37:48;;;;;;;16.90;9.65;;;8.50;99.90;;;;;;5066472;28;20028;-83
2022/04/22 02:45:26;;;;;;;14.75;9.07;;;8.50;99.90;;;;;;5075571;28;20084;-83
2022/04/22 02:45:44;;;;;;;17.05;9.68;;;8.60;99.90;;;;;;5065842;28;20044;-83
2022/04/22 02:48:10;;;;;;;17.63;9.75;;;8.60;99.90;;;;;;5069507;28;20029;-85
2022/04/22 02:50:36;;;;;;;14.38;9.55;;;8.60;99.90;;;;;;5075319;28;20041;-82
2022/04/22 02:53:02;;;;;;;14.77;9.13;;;8.60;99.90;;;;;;5065962;28;20477;-86
2022/04/22 02:55:28;;;;;;;15.05;9.15;;;8.70;99.90;;;;;;5080164;28;20025;-84
2022/04/22 02:57:53;;;;;;;14.10;9.32;;;8.70;99.90;;;;;;5067500;28;20079;-85
2022/04/22 03:00:19;;;;;;;24.02;10.32;;;8.70;99.90;;;;;;5068279;28;20032;-84
2022/04/22 03:02:45;;;;;;;16.85;9.57;;;8.70;99.90;;;;;;5075887;28;20028;-84
2022/04/22 03:05:11;;;;;;;26.23;9.95;;;8.80;99.90;;;;;;5071748;28;20029;-82
2022/04/22 03:07:38;;;;;;;18.15;9.85;;;8.80;99.90;;;;;;5067651;28;20495;-84
2022/04/22 03:10:05;;;;;;;20.30;10.13;;;8.80;99.90;;;;;;5066839;28;20033;-86
2022/04/22 03:12:30;;;;;;;18.55;10.07;;;8.80;99.90;;;;;;5068641;28;20100;-83
2022/04/22 03:14:56;;;;;;;21.90;10.13;;;8.90;99.90;;;;;;5067606;28;20033;-84
2022/04/22 03:17:23;;;;;;;21.45;9.70;;;8.90;99.90;;;;;;5062184;28;20447;-85
2022/04/22 03:19:49;;;;;;;16.42;9.88;;;8.90;99.90;;;;;;5063023;28;20086;-84
2022/04/22 03:22:16;;;;;;;14.15;9.45;;;8.90;99.90;;;;;;5076580;28;20071;-83
2022/04/22 03:24:42;;;;;;;18.95;10.68;;;9.00;99.90;;;;;;5060865;28;20029;-85
2022/04/22 03:27:09;;;;;;;17.33;10.68;;;9.00;99.90;;;;;;5068990;28;20021;-84
2022/04/22 03:29:35;;;;;;;20.83;10.63;;;9.00;99.90;;;;;;5059121;28;20048;-86
2022/04/22 03:32:02;;;;;;;14.75;9.57;;;9.00;99.90;;;;;;5059799;28;20445;-85
2022/04/22 03:34:27;;;;;;;17.73;11.60;;;9.10;99.90;;;;;;5061470;28;20036;-83
2022/04/22 03:36:54;;;;;;;18.30;10.73;;;9.10;99.90;;;;;;5071634;28;20025;-83
2022/04/22 03:39:21;;;;;;;19.98;10.65;;;9.10;99.90;;;;;;5068615;28;20020;-82
2022/04/22 03:41:46;;;;;;;16.40;10.05;;;9.10;99.90;;;;;;5076275;28;20021;-83
2022/04/22 03:44:12;;;;;;;19.25;10.80;;;9.20;99.90;;;;;;5074597;28;20089;-84
2022/04/22 03:46:38;;;;;;;19.75;11.35;;;9.20;99.90;;;;;;5074942;28;20068;-82
2022/04/22 03:49:04;;;;;;;27.38;11.63;;;9.20;99.90;;;;;;5068771;28;20059;-85
2022/04/22 03:51:31;;;;;;;21.75;10.63;;;9.30;99.90;;;;;;5066340;28;20032;-84
2022/04/22 03:53:57;;;;;;;22.05;11.70;;;9.30;99.90;;;;;;5068436;28;20054;-86
2022/04/22 03:59:07;;;;;;;22.13;11.87;;;9.30;99.90;;;;;;5062501;28;20028;-86
2022/04/22 04:01:33;;;;;;;19.23;12.00;;;9.30;99.90;;;;;;5068223;28;20025;-83
2022/04/22 04:03:59;;;;;;;27.55;11.95;;;9.30;99.90;;;;;;5071238;28;20037;-85
2022/04/22 04:06:26;;;;;;;17.60;11.55;;;9.30;99.90;;;;;;5068593;28;20472;-84
2022/04/22 04:17:06;;;;;;;23.30;12.77;;;9.40;99.90;;;;;;5076176;28;20047;-83
2022/04/22 04:25:02;;;;;;;22.40;12.93;;;9.50;99.90;;;;;;5065692;28;20051;-85
2022/04/22 04:27:29;;;;;;;24.05;12.60;;;9.50;99.90;;;;;;5075503;28;20025;-84
2022/04/22 04:29:55;;;;;;;24.15;12.70;;;9.50;99.90;;;;;;5076463;28;20032;-82
2022/04/22 04:32:21;;;;;;;21.88;12.57;;;9.60;99.90;;;;;;5075620;28;20048;-85
2022/04/22 04:34:47;;;;;;;22.80;12.82;;;9.60;99.90;;;;;;5064875;28;20408;-84
2022/04/22 04:37:13;;;;;;;19.60;12.25;;;9.60;99.90;;;;;;5059967;28;20025;-85
2022/04/22 04:39:40;;;;;;;21.70;12.50;;;9.60;99.90;;;;;;5060224;28;20033;-86
2022/04/22 04:42:08;;;;;;;22.95;13.15;;;9.60;99.90;;;;;;5073620;28;20032;-81
2022/04/22 04:44:36;;;;;;;23.13;13.20;;;9.60;99.90;;;;;;5076380;28;20032;-82
2022/04/22 04:47:02;;;;;;;29.50;13.15;;;9.60;99.90;;;;;;5077554;28;20040;-81
2022/04/22 04:49:29;;;;;;;23.83;12.90;;;9.70;99.90;;;;;;5076131;28;20025;-82
2022/04/22 04:51:54;;;;;;;23.65;12.70;;;9.70;99.90;;;;;;5077067;28;20060;-82
2022/04/22 04:54:20;;;;;;;21.38;12.27;;;9.70;99.90;;;;;;5077296;28;20068;-81
2022/04/22 04:56:46;;;;;;;18.85;11.52;;;9.70;99.90;;;;;;5076109;28;20077;-83
2022/04/22 04:59:12;;;;;;;21.45;12.73;;;9.70;99.90;;;;;;5072267;28;20032;-82
2022/04/22 05:01:38;;;;;;;27.20;13.40;;;9.80;99.90;;;;;;5072370;28;20045;-84
2022/04/22 05:04:04;;;;;;;21.52;12.48;;;9.70;99.90;;;;;;5074729;28;20033;-84
2022/04/22 05:06:30;;;;;;;25.45;12.95;;;9.80;99.90;;;;;;5069297;28;20017;-86
2022/04/22 05:08:56;;;;;;;22.50;12.05;;;9.80;99.90;;;;;;5067804;28;20029;-84
2022/04/22 05:11:22;;;;;;;25.75;13.32;;;9.80;99.90;;;;;;5072766;28;20025;-85
2022/04/22 05:13:48;;;;;;;25.70;13.35;;;9.80;99.90;;;;;;5069508;28;20112;-85
2022/04/22 05:16:14;;;;;;;24.55;13.48;;;9.90;99.90;;;;;;5067221;28;20392;-85
2022/04/22 05:18:40;;;;;;;31.23;14.52;;;9.90;99.90;;;;;;5074458;28;20082;-82
2022/04/22 05:21:06;;;;;;;25.77;13.38;;;9.90;99.90;;;;;;5066221;28;20396;-84
2022/04/22 05:23:32;;;;;;;26.08;13.25;;;10.00;99.90;;;;;;5065180;28;20028;-87
2022/04/22 05:26:01;;;;;;;24.25;13.20;;;10.10;99.90;;;;;;5071742;28;20032;-86
2022/04/22 05:28:30;;;;;;;22.40;13.00;;;10.10;99.90;;;;;;5068830;28;20035;-85
2022/04/22 05:33:43;;;;;;;25.48;13.27;;;10.30;99.90;;;;;;5060960;28;20047;-84
2022/04/22 05:36:09;;;;;;;20.92;12.05;;;10.30;99.90;;;;;;5046985;28;20022;-84
2022/04/22 05:38:35;;;;;;;24.67;13.88;;;10.40;99.90;;;;;;5059339;28;20055;-86
2022/04/22 05:41:01;;;;;;;25.20;13.18;;;10.30;99.90;;;;;;5065118;28;20036;-86
2022/04/22 05:43:28;;;;;;;23.90;12.45;;;10.30;99.90;;;;;;5045203;28;20025;-87
2022/04/22 05:45:54;;;;;;;23.02;12.90;;;10.30;99.90;;;;;;5042580;28;20028;-86
2022/04/22 05:48:20;;;;;;;34.42;12.57;;;10.30;99.90;;;;;;5047071;28;20029;-86
2022/04/22 05:50:46;;;;;;;28.25;13.85;;;10.30;99.90;;;;;;5062463;28;20032;-85
2022/04/22 05:53:12;;;;;;;28.05;13.82;;;10.20;99.90;;;;;;5049785;28;20036;-86
2022/04/22 05:55:37;;;;;;;29.77;13.98;;;10.20;99.90;;;;;;5046612;28;20052;-87
2022/04/22 05:58:03;;;;;;;23.27;13.05;;;10.20;99.90;;;;;;5053310;28;20029;-85
2022/04/22 06:00:31;;;;;;;26.52;13.23;;;10.10;99.90;;;;;;5071759;22;20049;-80
2022/04/22 06:02:57;;;;;;;28.02;13.27;;;10.10;99.90;;;;;;5067068;28;20056;-77
2022/04/22 06:05:24;;;;;;;27.27;13.20;;;10.10;99.90;;;;;;5069022;28;20013;-80
2022/04/22 06:10:31;;;;;;;24.13;13.32;;;10.20;99.90;;;;;;5046193;28;20048;-82
2022/04/22 06:10:38;;;;;;;27.77;13.45;;;10.20;99.90;;;;;;5057532;28;20395;-80
2022/04/22 06:13:05;;;;;;;23.00;11.88;;;10.30;99.90;;;;;;5055803;28;20468;-80
2022/04/22 06:15:31;;;;;;;26.40;12.98;;;10.30;99.90;;;;;;5075924;28;20074;-80
2022/04/22 06:17:58;;;;;;;32.85;14.15;;;10.30;99.90;;;;;;5057129;28;20086;-77
2022/04/22 06:20:25;;;;;;;36.33;13.18;;;10.40;99.90;;;;;;5063527;28;20051;-79
2022/04/22 06:22:51;;;;;;;23.63;12.38;;;10.40;99.90;;;;;;5045860;28;20112;-79
2022/04/22 06:25:17;;;;;;;24.30;12.38;;;10.40;99.90;;;;;;5075496;28;20032;-81
2022/04/22 06:27:45;;;;;;;27.85;12.13;;;10.40;99.90;;;;;;5048299;28;20059;-81
2022/04/22 06:30:14;;;;;;;21.75;11.18;;;10.50;99.90;;;;;;5045008;28;20032;-80
2022/04/22 06:32:43;;;;;;;25.05;12.10;;;10.50;99.90;;;;;;5045141;28;20028;-80
2022/04/22 06:35:10;;;;;;;22.50;12.18;;;10.60;99.90;;;;;;5049349;28;20433;-81
2022/04/22 06:37:38;;;;;;;36.42;16.73;;;10.70;99.90;;;;;;5061640;28;20051;-81
2022/04/22 06:45:48;;;;;;;21.40;12.50;;;10.90;99.90;;;;;;5062030;28;20051;-83
2022/04/22 06:48:21;;;;;;;26.17;12.27;;;10.90;99.90;;;;;;5071954;28;20069;-80
2022/04/22 06:50:51;;;;;;;27.08;12.88;;;10.80;99.90;;;;;;5064230;28;20029;-81
2022/04/22 06:53:19;;;;;;;24.25;13.07;;;10.80;99.90;;;;;;5061081;28;20024;-81
2022/04/22 06:55:47;;;;;;;30.00;13.50;;;10.80;99.90;;;;;;5042999;28;20056;-82
2022/04/22 06:58:15;;;;;;;24.20;12.32;;;10.70;99.90;;;;;;5060404;28;20017;-81
2022/04/22 07:00:42;;;;;;;26.52;12.90;;;10.60;99.90;;;;;;5060291;28;20041;-82
2022/04/22 07:03:13;;;;;;;27.95;13.07;;;10.60;99.90;;;;;;5059416;28;20028;-82
2022/04/22 07:05:41;;;;;;;22.88;12.82;;;10.60;99.90;;;;;;5040810;28;20476;-81
2022/04/22 07:08:11;;;;;;;23.80;14.05;;;10.60;99.90;;;;;;5049966;28;20571;-80
2022/04/22 07:10:37;;;;;;;24.42;14.57;;;10.60;99.90;;;;;;5049889;28;20033;-81
2022/04/22 07:13:04;;;;;;;24.92;14.02;;;10.50;99.90;;;;;;5057100;28;20029;-82
2022/04/22 07:15:30;;;;;;;27.15;14.63;;;10.40;99.90;;;;;;5043018;28;20029;-82
2022/04/22 07:17:56;;;;;;;23.33;13.93;;;10.40;99.90;;;;;;5065124;28;20036;-84
2022/04/22 07:20:23;;;;;;;26.92;14.82;;;10.40;99.90;;;;;;5045396;28;20056;-80
2022/04/22 07:22:50;;;;;;;29.67;16.63;;;10.30;99.90;;;;;;5067820;28;20043;-82
2022/04/22 07:25:20;;;;;;;28.77;14.57;;;10.30;99.90;;;;;;5065876;28;20041;-82
2022/04/22 07:27:47;;;;;;;25.60;15.38;;;10.20;99.90;;;;;;5044411;28;20064;-83
2022/04/22 07:30:15;;;;;;;27.23;16.00;;;10.20;99.90;;;;;;5030167;28;20032;-82
2022/04/22 07:32:45;;;;;;;29.25;16.02;;;10.20;99.90;;;;;;5037842;28;20101;-80
2022/04/22 07:35:12;;;;;;;26.15;15.10;;;10.10;99.90;;;;;;5027736;28;20033;-81
2022/04/22 07:37:42;;;;;;;43.33;23.70;;;10.10;99.90;;;;;;5042641;28;20021;-80
2022/04/22 07:40:09;;;;;;;26.23;16.17;;;10.10;99.90;;;;;;5042724;28;20029;-81
2022/04/22 07:42:36;;;;;;;30.20;15.95;;;10.10;99.90;;;;;;5060948;28;20021;-82
2022/04/22 07:47:51;;;;;;;24.75;15.43;;;10.10;99.90;;;;;;5066457;28;20035;-81
2022/04/22 07:50:20;;;;;;;30.42;16.30;;;10.00;99.90;;;;;;5084108;28;20118;-82
2022/04/22 07:52:47;;;;;;;32.60;18.65;;;10.00;99.90;;;;;;5044682;28;20068;-81
2022/04/22 07:55:13;;;;;;;29.98;16.35;;;9.90;99.90;;;;;;5058657;28;20067;-80
2022/04/22 07:57:41;;;;;;;32.30;17.42;;;10.00;99.90;;;;;;5066134;28;20036;-81
2022/04/22 08:00:10;;;;;;;31.10;18.15;;;10.00;99.90;;;;;;5065037;28;20032;-80
2022/04/22 08:02:40;;;;;;;30.92;16.83;;;10.10;99.90;;;;;;5054780;28;20029;-81
2022/04/22 08:05:11;;;;;;;28.27;16.52;;;10.00;99.90;;;;;;5055093;28;20087;-81
2022/04/22 08:07:38;;;;;;;32.78;16.50;;;10.10;99.90;;;;;;5066423;28;20025;-78
2022/04/22 08:10:05;;;;;;;33.90;18.58;;;10.20;99.90;;;;;;5065078;28;20024;-79
2022/04/22 08:12:31;;;;;;;30.23;17.85;;;10.30;99.90;;;;;;5065887;28;20241;-79
2022/04/22 08:14:58;;;;;;;32.25;16.90;;;10.40;99.90;;;;;;5046520;28;20037;-80
2022/04/22 08:17:24;;;;;;;28.85;17.52;;;10.50;99.90;;;;;;5064112;28;20032;-79
2022/04/22 08:19:49;;;;;;;29.55;17.70;;;10.50;99.90;;;;;;5062989;28;20096;-81
2022/04/22 08:22:15;;;;;;;28.65;17.85;;;10.70;99.90;;;;;;5057638;28;20041;-81
2022/04/22 08:24:41;;;;;;;29.85;17.75;;;10.70;99.90;;;;;;5057223;28;20127;-80
2022/04/22 08:27:07;;;;;;;27.73;17.50;;;10.60;99.90;;;;;;5057608;28;20345;-81
2022/04/22 08:29:33;;;;;;;29.25;16.90;;;10.60;99.90;;;;;;5062164;28;20025;-80
2022/04/22 08:31:59;;;;;;;28.77;16.52;;;10.70;99.90;;;;;;5057554;28;20112;-82
2022/04/22 08:34:25;;;;;;;28.52;16.40;;;10.70;99.90;;;;;;5042012;28;20493;-81
2022/04/22 08:36:51;;;;;;;28.23;17.27;;;10.80;99.90;;;;;;5068469;28;20403;-79
2022/04/22 08:39:16;;;;;;;39.58;17.70;;;10.90;99.90;;;;;;5073444;28;20116;-80
2022/04/22 08:41:43;;;;;;;26.55;17.02;;;10.80;99.90;;;;;;5061353;28;20037;-82
2022/04/22 08:44:13;;;;;;;30.98;17.77;;;10.80;99.90;;;;;;5063638;28;20045;-82
2022/04/22 08:52:11;;;;;;;29.98;17.08;;;10.60;99.90;;;;;;5062811;28;20029;-80
2022/04/22 08:54:44;;;;;;;26.42;16.73;;;10.40;99.90;;;;;;5046405;28;20469;-80
2022/04/22 08:57:10;;;;;;;30.80;16.73;;;10.40;99.90;;;;;;5057524;28;20024;-81
2022/04/22 08:59:35;;;;;;;30.02;17.15;;;10.40;99.90;;;;;;5039335;28;20108;-79
2022/04/22 09:02:03;;;;;;;29.25;17.38;;;10.40;99.90;;;;;;5049601;28;20039;-79
2022/04/22 09:04:29;;;;;;;46.67;27.02;;;10.50;99.90;;;;;;5061797;28;20105;-81
2022/04/22 09:06:56;;;;;;;31.50;19.58;;;10.60;99.90;;;;;;5043983;28;20040;-80
2022/04/22 09:09:24;;;;;;;30.17;16.95;;;10.60;99.90;;;;;;5065170;28;20107;-81
2022/04/22 09:11:51;;;;;;;26.05;15.90;;;10.70;99.90;;;;;;5068061;28;20032;-80
2022/04/22 09:14:20;;;;;;;27.55;16.90;;;10.60;99.90;;;;;;5059125;28;20036;-80
2022/04/22 09:16:47;;;;;;;30.83;17.88;;;10.50;99.90;;;;;;5043023;28;20029;-81
2022/04/22 09:19:13;;;;;;;32.85;18.50;;;10.50;99.90;;;;;;5056121;28;20139;-80
2022/04/22 09:21:39;;;;;;;29.70;17.88;;;10.50;99.90;;;;;;5053831;28;20117;-79
2022/04/22 09:24:13;;;;;;;30.52;17.52;;;10.60;99.90;;;;;;5052748;28;20025;-80
2022/04/22 09:26:39;;;;;;;33.03;19.25;;;10.70;99.90;;;;;;5055438;28;20052;-83
2022/04/22 09:29:06;;;;;;;38.53;20.83;;;10.80;99.90;;;;;;5063570;28;20032;-81
2022/04/22 09:31:49;;;;;;;31.65;18.67;;;10.80;99.90;;;;;;5045560;28;20041;-82
2022/04/22 09:34:31;;;;;;;31.98;18.65;;;10.90;99.90;;;;;;5063659;28;20392;-83
2022/04/22 09:42:58;;;;;;;31.77;18.45;;;11.20;99.90;;;;;;5060695;28;20584;-82
2022/04/22 09:45:39;;;;;;;34.38;18.30;;;11.20;99.90;;;;;;5067363;28;20026;-82
2022/04/22 09:48:17;;;;;;;29.05;18.42;;;11.40;99.90;;;;;;5046254;28;20041;-82
2022/04/22 09:50:46;;;;;;;30.73;17.83;;;11.70;99.90;;;;;;5063602;28;20053;-82
2022/04/22 09:53:14;;;;;;;32.03;18.40;;;11.90;99.90;;;;;;5052606;28;20118;-78
2022/04/22 09:55:58;;;;;;;29.98;17.77;;;11.80;99.90;;;;;;5066932;28;20028;-90
2022/04/22 09:58:27;;;;;;;36.22;19.35;;;11.80;99.90;;;;;;5064884;28;20421;-83
2022/04/22 10:01:01;;;;;;;31.70;19.08;;;11.80;99.90;;;;;;5057387;28;20051;-82
2022/04/22 10:03:35;;;;;;;32.93;18.77;;;11.80;99.90;;;;;;5064035;28;20083;-82
2022/04/22 10:06:02;;;;;;;27.70;19.60;;;11.80;99.90;;;;;;5049984;28;20029;-84
2022/04/22 10:08:31;;;;;;;36.97;18.38;;;11.90;99.90;;;;;;5067441;28;20025;-88
2022/04/22 10:11:01;;;;;;;29.40;17.90;;;12.00;99.90;;;;;;5050463;28;20048;-85
2022/04/22 10:13:34;;;;;;;35.28;18.85;;;11.90;99.90;;;;;;5067807;28;20085;-85
2022/04/22 10:16:02;;;;;;;30.55;19.33;;;11.80;99.90;;;;;;5066786;28;20029;-83
2022/04/22 10:18:29;;;;;;;31.38;18.70;;;11.70;99.90;;;;;;5072236;28;20017;-83
2022/04/22 10:20:57;;;;;;;29.08;19.10;;;11.80;99.90;;;;;;5066619;28;20028;-84
2022/04/22 10:23:23;;;;;;;27.27;17.83;;;11.90;99.90;;;;;;5069485;28;20021;-81
2022/04/22 10:25:49;;;;;;;36.10;19.85;;;11.90;99.90;;;;;;5069750;28;20029;-82
2022/04/22 10:28:16;;;;;;;31.05;18.20;;;11.90;99.90;;;;;;5066389;28;20516;-79
2022/04/22 10:30:43;;;;;;;28.60;19.20;;;11.90;99.90;;;;;;5069293;28;20044;-83
2022/04/22 10:33:12;;;;;;;32.05;18.33;;;11.80;99.90;;;;;;5068621;28;20025;-81
2022/04/22 10:35:40;;;;;;;31.08;17.77;;;11.80;99.90;;;;;;5065501;28;20065;-80
2022/04/22 10:38:29;;;;;;;37.85;19.27;;;11.80;99.90;;;;;;5044647;28;20016;-83
2022/04/22 10:40:55;;;;;;;31.00;19.33;;;11.80;99.90;;;;;;5077833;28;20028;-82
2022/04/22 10:43:27;;;;;;;36.38;19.58;;;11.80;99.90;;;;;;5051427;28;20021;-83
2022/04/22 10:48:40;;;;;;;26.50;17.20;;;11.70;99.90;;;;;;5058940;28;20081;-82
2022/04/22 10:51:08;;;;;;;25.77;17.13;;;11.70;99.90;;;;;;5046003;28;20028;-79
2022/04/22 10:53:49;;;;;;;26.02;15.68;;;11.40;99.90;;;;;;5061766;28;20033;-83
2022/04/22 10:56:30;;;;;;;31.15;16.17;;;11.40;99.90;;;;;;5062726;28;20068;-80
2022/04/22 10:59:21;;;;;;;30.00;16.88;;;11.30;99.90;;;;;;5062909;28;20059;-80
2022/04/22 11:01:48;;;;;;;30.85;18.45;;;11.20;99.90;;;;;;5056520;28;20084;-83
2022/04/22 11:04:26;;;;;;;29.17;17.27;;;11.20;99.90;;;;;;5042695;28;20063;-79
2022/04/22 11:06:53;;;;;;;24.77;16.00;;;11.20;99.90;;;;;;5066590;28;20037;-80
2022/04/22 11:09:27;;;;;;;23.25;16.15;;;11.30;99.90;;;;;;5063655;28;20029;-79
2022/04/22 11:11:54;;;;;;;24.92;16.90;;;11.30;99.90;;;;;;5049273;28;20116;-80
2022/04/22 11:14:23;;;;;;;26.85;17.17;;;11.30;99.90;;;;;;5048634;28;20027;-79
2022/04/22 11:16:50;;;;;;;29.48;17.05;;;11.20;99.90;;;;;;5068047;28;20074;-80
2022/04/22 11:19:19;;;;;;;29.63;17.08;;;11.20;99.90;;;;;;5047662;28;20116;-79
2022/04/22 11:21:52;;;;;;;29.00;16.45;;;11.20;99.90;;;;;;5061990;28;20143;-79
2022/04/22 11:24:26;;;;;;;27.35;18.23;;;11.20;99.90;;;;;;5059677;28;20040;-81
2022/04/22 11:27:00;;;;;;;24.58;15.07;;;11.20;99.90;;;;;;5062114;28;20037;-79
2022/04/22 11:29:28;;;;;;;26.55;16.30;;;11.20;99.90;;;;;;5076089;28;20396;-80
2022/04/22 11:32:03;;;;;;;28.33;16.17;;;11.20;99.90;;;;;;5086962;28;20078;-78
2022/04/22 11:34:38;;;;;;;22.48;15.50;;;11.10;99.90;;;;;;5066623;28;20035;-79
2022/04/22 11:37:17;;;;;;;37.10;22.27;;;11.00;99.90;;;;;;5049719;28;20551;-81
2022/04/22 11:39:48;;;;;;;28.98;17.88;;;11.00;99.90;;;;;;5061208;28;20029;-86
2022/04/22 11:42:17;;;;;;;26.95;16.80;;;11.00;99.90;;;;;;5041617;28;20033;-81
2022/04/22 11:45:00;;;;;;;30.33;18.15;;;11.00;99.90;;;;;;5058974;28;20088;-85
2022/04/22 11:47:26;;;;;;;23.83;16.30;;;11.00;99.90;;;;;;5045434;28;20108;-81
2022/04/22 11:49:52;;;;;;;26.75;17.20;;;11.00;99.90;;;;;;5067581;28;20024;-81
2022/04/22 11:52:20;;;;;;;25.63;17.55;;;11.00;99.90;;;;;;5064153;28;20106;-82
2022/04/22 11:54:46;;;;;;;26.02;17.65;;;11.00;99.90;;;;;;5058707;28;20032;-81
2022/04/22 11:57:12;;;;;;;25.45;16.17;;;11.00;99.90;;;;;;5058353;28;20119;-82
2022/04/22 11:59:39;;;;;;;27.40;16.55;;;11.00;99.90;;;;;;5057584;22;20863;-84
2022/04/22 12:10:30;;;;;;;24.35;16.25;;;10.60;99.90;;;;;;5064847;28;20021;-84
2022/04/22 12:13:01;;;;;;;26.55;16.33;;;10.60;99.90;;;;;;5052187;28;20037;-84
2022/04/22 12:15:28;;;;;;;25.48;15.77;;;10.60;99.90;;;;;;5063104;28;20090;-85
2022/04/22 12:17:54;;;;;;;23.90;15.52;;;10.60;99.90;;;;;;5061039;28;20025;-84
2022/04/22 12:20:20;;;;;;;23.80;15.95;;;10.60;99.90;;;;;;5066600;28;20024;-85
2022/04/22 12:22:49;;;;;;;25.30;15.00;;;10.70;99.90;;;;;;5048003;28;20116;-83
2022/04/22 12:25:19;;;;;;;24.20;15.70;;;10.70;99.90;;;;;;5045885;28;20017;-83
2022/04/22 12:28:08;;;;;;;23.88;15.80;;;10.70;99.90;;;;;;5061440;28;20027;-84
2022/04/22 12:30:39;;;;;;;21.80;14.82;;;10.70;99.90;;;;;;5034104;28;20029;-84
2022/04/22 12:33:06;;;;;;;27.38;15.52;;;10.80;99.90;;;;;;5031715;28;20477;-85
2022/04/22 12:35:32;;;;;;;23.95;16.02;;;10.80;99.90;;;;;;5045863;28;20401;-84
2022/04/22 12:38:05;;;;;;;25.88;15.98;;;10.80;99.90;;;;;;5045965;28;20044;-85
2022/04/22 12:40:44;;;;;;;23.10;14.45;;;10.90;99.90;;;;;;5029083;28;20928;-84
2022/04/22 12:43:31;;;;;;;24.02;14.73;;;10.80;99.90;;;;;;5050006;28;20041;-85
2022/04/22 12:52:33;;;;;;;19.27;13.63;;;10.70;99.90;;;;;;5025452;28;20048;-84
2022/04/22 12:55:12;;;;;;;25.05;14.40;;;10.60;99.90;;;;;;5030835;28;20090;-85
2022/04/22 12:57:41;;;;;;;23.00;15.48;;;10.60;99.90;;;;;;5030281;28;20045;-85
2022/04/22 13:00:19;;;;;;;22.08;15.05;;;10.50;99.90;;;;;;5032290;28;20034;-84
2022/04/22 13:02:46;;;;;;;22.38;14.18;;;10.50;99.90;;;;;;5041328;28;20088;-84
2022/04/22 13:05:19;;;;;;;23.70;15.05;;;10.50;99.90;;;;;;5054256;28;20029;-84
2022/04/22 13:07:52;;;;;;;22.63;15.38;;;10.50;99.90;;;;;;5054813;28;20024;-84
2022/04/22 13:10:23;;;;;;;24.35;14.45;;;10.60;99.90;;;;;;5031317;28;20125;-83
2022/04/22 13:12:49;;;;;;;20.67;13.68;;;10.50;99.90;;;;;;5031705;28;20028;-84
2022/04/22 13:15:18;;;;;;;21.38;14.45;;;10.60;99.90;;;;;;5044006;28;20101;-85
2022/04/22 13:17:45;;;;;;;26.48;15.80;;;10.60;99.90;;;;;;5049909;28;20093;-84
2022/04/22 13:20:13;;;;;;;25.45;15.23;;;10.60;99.90;;;;;;5045542;28;20589;-85
2022/04/22 13:22:40;;;;;;;23.02;14.65;;;10.60;99.90;;;;;;5062062;28;20052;-85
2022/04/22 13:25:09;;;;;;;22.90;15.02;;;10.50;99.90;;;;;;5068363;28;20118;-83
2022/04/22 13:27:35;;;;;;;25.52;15.65;;;10.50;99.90;;;;;;5059033;28;20029;-85
2022/04/22 13:30:03;;;;;;;25.42;16.75;;;10.50;99.90;;;;;;5048736;28;20018;-84
2022/04/22 13:32:29;;;;;;;27.17;16.17;;;10.40;99.90;;;;;;5048344;28;20041;-84
2022/04/22 13:34:54;;;;;;;23.65;16.52;;;10.50;99.90;;;;;;5048548;28;20093;-84
2022/04/22 13:37:20;;;;;;;24.38;16.02;;;10.50;99.90;;;;;;5072199;28;20031;-84
2022/04/22 13:39:46;;;;;;;25.75;15.45;;;10.50;99.90;;;;;;5065702;28;20026;-84
2022/04/22 13:42:12;;;;;;;30.17;17.75;;;10.50;99.90;;;;;;5051635;28;20052;-83
2022/04/22 13:52:52;;;;;;;21.98;14.27;;;10.40;99.90;;;;;;5080026;28;20041;-86
2022/04/22 13:55:17;;;;;;;25.67;13.77;;;10.40;99.90;;;;;;5077588;28;20033;-86